Pistol River, Oregon
Current Conditions -  °F | °C
As of 3:56 PM on Saturday 22 Nov 2014 (Local Time) from KBOK Reporting Station
Clear Clear  
Wind Chill: 13°   Ceiling: Unl
Heat Index: 13°   Visibility: 7mi
Dew Point: 11°   Wind: 0mph
Humidity: 86%   Direction: NA
Pressure: 30.19"   Gusts: NA
Location:  42.5771°N, 124.359°W
Report Text: KBOK 222356Z AUTO 00000KT 7SM CLR 13/11 A3019 RMK AO2 51018 60001 T01270105 10144 20116 SLP226
Loading
Personal Weather Stations






























Interactive Weather Map New forecast layout! Learn more

10-Day Weather Forecast

Advertisements
Track Severe Weather on mobile